sensor_id;sensor_type;location;lat;lon;timestamp;P1;durP1;ratioP1;P2;durP2;ratioP2
47758;SDS011;33520;55.122;35.582;2022-09-27T00:02:04;5.03;;;0.82;;
47758;SDS011;33520;55.122;35.582;2022-09-27T00:04:30;13.07;;;1.15;;
47758;SDS011;33520;55.122;35.582;2022-09-27T00:06:56;7.43;;;1.00;;
47758;SDS011;33520;55.122;35.582;2022-09-27T00:09:23;12.63;;;1.40;;
47758;SDS011;33520;55.122;35.582;2022-09-27T00:11:49;10.65;;;1.30;;
47758;SDS011;33520;55.122;35.582;2022-09-27T00:16:42;21.35;;;1.40;;
47758;SDS011;33520;55.122;35.582;2022-09-27T00:19:10;10.45;;;1.23;;
47758;SDS011;33520;55.122;35.582;2022-09-27T00:21:38;12.65;;;1.55;;
47758;SDS011;33520;55.122;35.582;2022-09-27T00:26:31;8.00;;;1.35;;
47758;SDS011;33520;55.122;35.582;2022-09-27T00:31:28;4.72;;;0.90;;
47758;SDS011;33520;55.122;35.582;2022-09-27T00:33:56;9.10;;;1.35;;
47758;SDS011;33520;55.122;35.582;2022-09-27T00:36:26;8.27;;;1.30;;
47758;SDS011;33520;55.122;35.582;2022-09-27T00:38:53;1.80;;;1.25;;
47758;SDS011;33520;55.122;35.582;2022-09-27T00:41:28;2.80;;;0.60;;
47758;SDS011;33520;55.122;35.582;2022-09-27T00:43:56;4.05;;;1.00;;
47758;SDS011;33520;55.122;35.582;2022-09-27T00:46:32;4.90;;;1.02;;
47758;SDS011;33520;55.122;35.582;2022-09-27T00:51:44;9.40;;;1.00;;
47758;SDS011;33520;55.122;35.582;2022-09-27T00:54:13;4.88;;;0.77;;
47758;SDS011;33520;55.122;35.582;2022-09-27T00:56:42;7.18;;;0.80;;
47758;SDS011;33520;55.122;35.582;2022-09-27T00:59:11;3.80;;;0.80;;
47758;SDS011;33520;55.122;35.582;2022-09-27T01:01:41;3.85;;;0.85;;
47758;SDS011;33520;55.122;35.582;2022-09-27T01:06:35;9.10;;;1.00;;
47758;SDS011;33520;55.122;35.582;2022-09-27T01:09:03;8.63;;;0.77;;
47758;SDS011;33520;55.122;35.582;2022-09-27T01:11:37;5.40;;;0.63;;
47758;SDS011;33520;55.122;35.582;2022-09-27T01:23:10;6.15;;;0.88;;
47758;SDS011;33520;55.122;35.582;2022-09-27T01:32:04;1.08;;;0.55;;
47758;SDS011;33520;55.122;35.582;2022-09-27T01:42:56;1.08;;;0.57;;
47758;SDS011;33520;55.122;35.582;2022-09-27T01:45:33;2.75;;;0.93;;
47758;SDS011;33520;55.122;35.582;2022-09-27T01:48:43;8.98;;;0.85;;
47758;SDS011;33520;55.122;35.582;2022-09-27T01:51:20;16.40;;;1.10;;
47758;SDS011;33520;55.122;35.582;2022-09-27T01:53:53;10.77;;;1.10;;
47758;SDS011;33520;55.122;35.582;2022-09-27T01:56:40;4.63;;;0.80;;
47758;SDS011;33520;55.122;35.582;2022-09-27T01:59:19;1.65;;;0.63;;
47758;SDS011;33520;55.122;35.582;2022-09-27T02:02:02;0.63;;;0.40;;
47758;SDS011;33520;55.122;35.582;2022-09-27T02:04:50;0.73;;;0.55;;
47758;SDS011;33520;55.122;35.582;2022-09-27T02:07:21;3.15;;;0.50;;
47758;SDS011;33520;55.122;35.582;2022-09-27T02:09:57;0.95;;;0.50;;
47758;SDS011;33520;55.122;35.582;2022-09-27T02:12:44;0.63;;;0.50;;
47758;SDS011;33520;55.122;35.582;2022-09-27T02:15:22;1.10;;;0.52;;
47758;SDS011;33520;55.122;35.582;2022-09-27T02:18:11;0.50;;;0.50;;
47758;SDS011;33520;55.122;35.582;2022-09-27T02:20:41;0.82;;;0.52;;
47758;SDS011;33520;55.122;35.582;2022-09-27T02:23:22;0.50;;;0.40;;
47758;SDS011;33520;55.122;35.582;2022-09-27T02:26:11;1.33;;;1.00;;
47758;SDS011;33520;55.122;35.582;2022-09-27T02:31:21;2.58;;;0.70;;
47758;SDS011;33520;55.122;35.582;2022-09-27T02:33:49;0.98;;;0.50;;
47758;SDS011;33520;55.122;35.582;2022-09-27T02:36:46;3.35;;;0.70;;
47758;SDS011;33520;55.122;35.582;2022-09-27T02:39:13;1.13;;;0.47;;
47758;SDS011;33520;55.122;35.582;2022-09-27T02:41:41;1.33;;;0.77;;
47758;SDS011;33520;55.122;35.582;2022-09-27T02:44:08;0.63;;;0.40;;
47758;SDS011;33520;55.122;35.582;2022-09-27T02:53:14;0.80;;;0.60;;
47758;SDS011;33520;55.122;35.582;2022-09-27T02:59:37;2.80;;;0.65;;
47758;SDS011;33520;55.122;35.582;2022-09-27T03:05:39;0.60;;;0.47;;
47758;SDS011;33520;55.122;35.582;2022-09-27T03:08:08;2.67;;;1.75;;
47758;SDS011;33520;55.122;35.582;2022-09-27T03:10:36;2.08;;;0.80;;
47758;SDS011;33520;55.122;35.582;2022-09-27T03:13:02;0.98;;;0.50;;
47758;SDS011;33520;55.122;35.582;2022-09-27T03:15:29;1.45;;;0.70;;
47758;SDS011;33520;55.122;35.582;2022-09-27T03:18:00;0.80;;;0.57;;
47758;SDS011;33520;55.122;35.582;2022-09-27T03:21:01;1.95;;;0.82;;
47758;SDS011;33520;55.122;35.582;2022-09-27T03:23:28;0.98;;;0.68;;
47758;SDS011;33520;55.122;35.582;2022-09-27T03:25:55;3.22;;;0.70;;
47758;SDS011;33520;55.122;35.582;2022-09-27T03:28:22;1.50;;;0.93;;
47758;SDS011;33520;55.122;35.582;2022-09-27T03:30:49;6.30;;;1.60;;
47758;SDS011;33520;55.122;35.582;2022-09-27T03:33:39;6.38;;;1.70;;
47758;SDS011;33520;55.122;35.582;2022-09-27T03:36:09;3.97;;;1.50;;
47758;SDS011;33520;55.122;35.582;2022-09-27T03:38:36;6.05;;;1.25;;
47758;SDS011;33520;55.122;35.582;2022-09-27T03:41:04;11.18;;;1.70;;
47758;SDS011;33520;55.122;35.582;2022-09-27T03:43:31;13.10;;;1.88;;
47758;SDS011;33520;55.122;35.582;2022-09-27T03:46:01;13.60;;;1.58;;
47758;SDS011;33520;55.122;35.582;2022-09-27T03:48:28;14.23;;;1.95;;
47758;SDS011;33520;55.122;35.582;2022-09-27T03:50:55;24.27;;;2.30;;
47758;SDS011;33520;55.122;35.582;2022-09-27T03:53:22;15.52;;;2.30;;
47758;SDS011;33520;55.122;35.582;2022-09-27T03:55:49;15.65;;;1.80;;
47758;SDS011;33520;55.122;35.582;2022-09-27T03:58:15;17.52;;;1.50;;
47758;SDS011;33520;55.122;35.582;2022-09-27T04:00:42;19.77;;;1.70;;
47758;SDS011;33520;55.122;35.582;2022-09-27T04:03:08;14.57;;;1.40;;
47758;SDS011;33520;55.122;35.582;2022-09-27T04:05:38;7.60;;;1.00;;
47758;SDS011;33520;55.122;35.582;2022-09-27T04:08:12;11.75;;;1.48;;
47758;SDS011;33520;55.122;35.582;2022-09-27T04:10:40;14.13;;;1.50;;
47758;SDS011;33520;55.122;35.582;2022-09-27T04:13:08;20.55;;;1.83;;
47758;SDS011;33520;55.122;35.582;2022-09-27T04:15:41;12.23;;;1.50;;
47758;SDS011;33520;55.122;35.582;2022-09-27T04:18:26;7.65;;;1.25;;
47758;SDS011;33520;55.122;35.582;2022-09-27T04:20:53;7.47;;;1.20;;
47758;SDS011;33520;55.122;35.582;2022-09-27T04:25:50;7.75;;;1.35;;
47758;SDS011;33520;55.122;35.582;2022-09-27T04:28:37;3.60;;;1.20;;
47758;SDS011;33520;55.122;35.582;2022-09-27T04:31:03;3.40;;;1.15;;
47758;SDS011;33520;55.122;35.582;2022-09-27T04:36:05;4.75;;;1.08;;
47758;SDS011;33520;55.122;35.582;2022-09-27T04:39:13;5.93;;;1.05;;
47758;SDS011;33520;55.122;35.582;2022-09-27T04:41:42;4.47;;;1.10;;
47758;SDS011;33520;55.122;35.582;2022-09-27T04:44:09;4.72;;;1.10;;
47758;SDS011;33520;55.122;35.582;2022-09-27T04:46:38;2.30;;;1.15;;
47758;SDS011;33520;55.122;35.582;2022-09-27T04:49:04;2.80;;;1.23;;
47758;SDS011;33520;55.122;35.582;2022-09-27T04:51:34;2.47;;;1.10;;
47758;SDS011;33520;55.122;35.582;2022-09-27T04:54:00;2.50;;;1.00;;
47758;SDS011;33520;55.122;35.582;2022-09-27T04:56:30;1.80;;;0.90;;
47758;SDS011;33520;55.122;35.582;2022-09-27T04:58:56;3.58;;;1.00;;
47758;SDS011;33520;55.122;35.582;2022-09-27T05:03:58;1.98;;;1.05;;
47758;SDS011;33520;55.122;35.582;2022-09-27T05:06:26;1.60;;;1.10;;
47758;SDS011;33520;55.122;35.582;2022-09-27T05:08:56;2.95;;;0.90;;
47758;SDS011;33520;55.122;35.582;2022-09-27T05:11:28;0.98;;;0.77;;
47758;SDS011;33520;55.122;35.582;2022-09-27T05:14:18;0.60;;;0.60;;
47758;SDS011;33520;55.122;35.582;2022-09-27T05:17:11;1.35;;;0.85;;
47758;SDS011;33520;55.122;35.582;2022-09-27T05:19:49;1.30;;;0.85;;
47758;SDS011;33520;55.122;35.582;2022-09-27T05:22:27;1.30;;;0.80;;
47758;SDS011;33520;55.122;35.582;2022-09-27T05:24:54;1.65;;;1.10;;
47758;SDS011;33520;55.122;35.582;2022-09-27T05:27:20;1.35;;;0.77;;
47758;SDS011;33520;55.122;35.582;2022-09-27T05:29:47;1.92;;;0.88;;
47758;SDS011;33520;55.122;35.582;2022-09-27T05:32:34;1.65;;;1.02;;
47758;SDS011;33520;55.122;35.582;2022-09-27T05:35:39;3.33;;;1.05;;
47758;SDS011;33520;55.122;35.582;2022-09-27T05:38:13;3.15;;;1.50;;
47758;SDS011;33520;55.122;35.582;2022-09-27T05:40:42;2.50;;;1.88;;
47758;SDS011;33520;55.122;35.582;2022-09-27T05:43:10;3.03;;;1.52;;
47758;SDS011;33520;55.122;35.582;2022-09-27T05:50:35;2.22;;;1.73;;
47758;SDS011;33520;55.122;35.582;2022-09-27T05:53:02;1.88;;;1.35;;
47758;SDS011;33520;55.122;35.582;2022-09-27T05:57:55;2.28;;;1.58;;
47758;SDS011;33520;55.122;35.582;2022-09-27T06:00:44;2.95;;;2.00;;
47758;SDS011;33520;55.122;35.582;2022-09-27T06:03:34;4.25;;;2.53;;
47758;SDS011;33520;55.122;35.582;2022-09-27T06:06:19;3.33;;;2.05;;
47758;SDS011;33520;55.122;35.582;2022-09-27T06:08:53;3.92;;;1.90;;
47758;SDS011;33520;55.122;35.582;2022-09-27T06:11:21;2.88;;;2.03;;
47758;SDS011;33520;55.122;35.582;2022-09-27T06:13:49;3.70;;;1.60;;
47758;SDS011;33520;55.122;35.582;2022-09-27T06:16:16;4.28;;;2.10;;
47758;SDS011;33520;55.122;35.582;2022-09-27T06:18:44;3.67;;;1.35;;
47758;SDS011;33520;55.122;35.582;2022-09-27T06:21:10;2.60;;;1.70;;
47758;SDS011;33520;55.122;35.582;2022-09-27T06:23:40;2.08;;;1.35;;
47758;SDS011;33520;55.122;35.582;2022-09-27T06:26:18;1.90;;;1.08;;
47758;SDS011;33520;55.122;35.582;2022-09-27T06:29:06;2.70;;;1.25;;
47758;SDS011;33520;55.122;35.582;2022-09-27T06:31:34;2.17;;;1.35;;
47758;SDS011;33520;55.122;35.582;2022-09-27T06:34:07;3.17;;;1.70;;
47758;SDS011;33520;55.122;35.582;2022-09-27T06:36:34;2.05;;;1.20;;
47758;SDS011;33520;55.122;35.582;2022-09-27T06:39:01;4.35;;;1.48;;
47758;SDS011;33520;55.122;35.582;2022-09-27T06:41:31;1.83;;;1.05;;
47758;SDS011;33520;55.122;35.582;2022-09-27T06:44:09;1.48;;;1.10;;
47758;SDS011;33520;55.122;35.582;2022-09-27T06:46:55;3.25;;;1.48;;
47758;SDS011;33520;55.122;35.582;2022-09-27T06:49:30;3.15;;;1.50;;
47758;SDS011;33520;55.122;35.582;2022-09-27T06:51:56;1.95;;;1.20;;
47758;SDS011;33520;55.122;35.582;2022-09-27T06:54:24;1.63;;;1.15;;
47758;SDS011;33520;55.122;35.582;2022-09-27T06:56:50;2.22;;;0.95;;
47758;SDS011;33520;55.122;35.582;2022-09-27T06:59:16;1.85;;;1.15;;
47758;SDS011;33520;55.122;35.582;2022-09-27T07:02:20;2.08;;;1.35;;
47758;SDS011;33520;55.122;35.582;2022-09-27T07:04:57;2.72;;;1.70;;
47758;SDS011;33520;55.122;35.582;2022-09-27T07:07:45;2.65;;;1.30;;
47758;SDS011;33520;55.122;35.582;2022-09-27T07:10:14;3.58;;;1.20;;
47758;SDS011;33520;55.122;35.582;2022-09-27T07:12:43;4.43;;;1.40;;
47758;SDS011;33520;55.122;35.582;2022-09-27T07:15:14;2.10;;;1.30;;
47758;SDS011;33520;55.122;35.582;2022-09-27T07:17:41;3.67;;;1.55;;
47758;SDS011;33520;55.122;35.582;2022-09-27T07:20:07;2.20;;;1.20;;
47758;SDS011;33520;55.122;35.582;2022-09-27T07:22:40;2.72;;;1.35;;
47758;SDS011;33520;55.122;35.582;2022-09-27T07:25:12;4.35;;;1.50;;
47758;SDS011;33520;55.122;35.582;2022-09-27T07:30:08;2.83;;;1.63;;
47758;SDS011;33520;55.122;35.582;2022-09-27T07:32:35;2.50;;;1.48;;
47758;SDS011;33520;55.122;35.582;2022-09-27T07:35:03;2.05;;;1.30;;
47758;SDS011;33520;55.122;35.582;2022-09-27T07:37:32;1.63;;;1.00;;
47758;SDS011;33520;55.122;35.582;2022-09-27T07:40:00;2.17;;;1.50;;
47758;SDS011;33520;55.122;35.582;2022-09-27T07:42:31;2.38;;;1.40;;
47758;SDS011;33520;55.122;35.582;2022-09-27T07:44:58;1.30;;;0.90;;
47758;SDS011;33520;55.122;35.582;2022-09-27T07:47:47;3.75;;;1.13;;
47758;SDS011;33520;55.122;35.582;2022-09-27T07:50:42;1.98;;;1.00;;
47758;SDS011;33520;55.122;35.582;2022-09-27T07:53:29;1.60;;;1.10;;
47758;SDS011;33520;55.122;35.582;2022-09-27T07:56:09;2.58;;;0.90;;
47758;SDS011;33520;55.122;35.582;2022-09-27T07:58:36;1.20;;;0.93;;
47758;SDS011;33520;55.122;35.582;2022-09-27T08:01:05;3.50;;;1.00;;
47758;SDS011;33520;55.122;35.582;2022-09-27T08:03:31;1.80;;;1.10;;
47758;SDS011;33520;55.122;35.582;2022-09-27T08:06:00;1.88;;;1.10;;
47758;SDS011;33520;55.122;35.582;2022-09-27T08:08:27;4.53;;;1.63;;
47758;SDS011;33520;55.122;35.582;2022-09-27T08:13:20;1.83;;;1.13;;
47758;SDS011;33520;55.122;35.582;2022-09-27T08:15:50;2.83;;;1.10;;
47758;SDS011;33520;55.122;35.582;2022-09-27T08:18:17;1.70;;;0.98;;
47758;SDS011;33520;55.122;35.582;2022-09-27T08:20:49;1.67;;;0.90;;
47758;SDS011;33520;55.122;35.582;2022-09-27T08:23:33;2.00;;;1.25;;
47758;SDS011;33520;55.122;35.582;2022-09-27T08:26:14;2.55;;;1.25;;
47758;SDS011;33520;55.122;35.582;2022-09-27T08:28:50;1.35;;;1.15;;
47758;SDS011;33520;55.122;35.582;2022-09-27T08:31:19;2.80;;;1.25;;
47758;SDS011;33520;55.122;35.582;2022-09-27T08:33:49;1.55;;;1.05;;
47758;SDS011;33520;55.122;35.582;2022-09-27T08:36:16;3.17;;;1.35;;
47758;SDS011;33520;55.122;35.582;2022-09-27T08:38:42;1.42;;;1.10;;
47758;SDS011;33520;55.122;35.582;2022-09-27T08:43:47;1.10;;;0.90;;
47758;SDS011;33520;55.122;35.582;2022-09-27T08:49:09;2.13;;;1.35;;
47758;SDS011;33520;55.122;35.582;2022-09-27T08:51:39;2.85;;;1.20;;
47758;SDS011;33520;55.122;35.582;2022-09-27T08:56:39;1.05;;;0.80;;
47758;SDS011;33520;55.122;35.582;2022-09-27T08:59:11;1.27;;;1.05;;
47758;SDS011;33520;55.122;35.582;2022-09-27T09:01:39;1.83;;;1.10;;
47758;SDS011;33520;55.122;35.582;2022-09-27T09:04:09;2.38;;;1.00;;
47758;SDS011;33520;55.122;35.582;2022-09-27T09:06:41;2.28;;;1.02;;
47758;SDS011;33520;55.122;35.582;2022-09-27T09:15:59;2.55;;;1.33;;
47758;SDS011;33520;55.122;35.582;2022-09-27T09:30:03;1.20;;;1.00;;
47758;SDS011;33520;55.122;35.582;2022-09-27T09:33:02;2.67;;;1.30;;
47758;SDS011;33520;55.122;35.582;2022-09-27T09:36:02;2.00;;;1.17;;
47758;SDS011;33520;55.122;35.582;2022-09-27T09:38:51;1.23;;;0.90;;
47758;SDS011;33520;55.122;35.582;2022-09-27T09:41:34;2.35;;;1.30;;
47758;SDS011;33520;55.122;35.582;2022-09-27T09:44:13;1.70;;;0.82;;
47758;SDS011;33520;55.122;35.582;2022-09-27T09:47:00;2.15;;;0.85;;
47758;SDS011;33520;55.122;35.582;2022-09-27T09:52:13;1.55;;;0.93;;
47758;SDS011;33520;55.122;35.582;2022-09-27T09:57:16;1.50;;;0.93;;
47758;SDS011;33520;55.122;35.582;2022-09-27T09:59:59;3.38;;;1.00;;
47758;SDS011;33520;55.122;35.582;2022-09-27T10:02:34;1.20;;;0.90;;
47758;SDS011;33520;55.122;35.582;2022-09-27T10:05:09;1.85;;;1.40;;
47758;SDS011;33520;55.122;35.582;2022-09-27T10:07:40;2.00;;;1.17;;
47758;SDS011;33520;55.122;35.582;2022-09-27T10:10:07;5.60;;;2.33;;
47758;SDS011;33520;55.122;35.582;2022-09-27T10:12:55;2.95;;;1.90;;
47758;SDS011;33520;55.122;35.582;2022-09-27T10:15:28;2.30;;;1.60;;
47758;SDS011;33520;55.122;35.582;2022-09-27T10:17:56;1.65;;;1.20;;
47758;SDS011;33520;55.122;35.582;2022-09-27T10:20:38;1.58;;;1.00;;
47758;SDS011;33520;55.122;35.582;2022-09-27T10:23:15;3.03;;;1.30;;
47758;SDS011;33520;55.122;35.582;2022-09-27T10:26:04;1.30;;;1.00;;
47758;SDS011;33520;55.122;35.582;2022-09-27T10:28:43;2.45;;;1.15;;
47758;SDS011;33520;55.122;35.582;2022-09-27T10:31:20;1.85;;;0.95;;
47758;SDS011;33520;55.122;35.582;2022-09-27T10:34:16;2.28;;;1.20;;
47758;SDS011;33520;55.122;35.582;2022-09-27T10:39:47;2.00;;;1.55;;
47758;SDS011;33520;55.122;35.582;2022-09-27T10:42:33;1.60;;;1.30;;
47758;SDS011;33520;55.122;35.582;2022-09-27T10:45:18;2.38;;;1.33;;
47758;SDS011;33520;55.122;35.582;2022-09-27T10:47:56;3.17;;;1.40;;
47758;SDS011;33520;55.122;35.582;2022-09-27T10:50:55;2.28;;;1.40;;
47758;SDS011;33520;55.122;35.582;2022-09-27T10:53:53;2.83;;;1.00;;
47758;SDS011;33520;55.122;35.582;2022-09-27T10:56:32;1.25;;;0.85;;
47758;SDS011;33520;55.122;35.582;2022-09-27T10:59:00;3.00;;;1.05;;
47758;SDS011;33520;55.122;35.582;2022-09-27T11:01:38;2.40;;;1.20;;
47758;SDS011;33520;55.122;35.582;2022-09-27T11:07:06;1.88;;;1.20;;
47758;SDS011;33520;55.122;35.582;2022-09-27T11:09:54;1.83;;;1.02;;
47758;SDS011;33520;55.122;35.582;2022-09-27T11:12:29;2.25;;;0.98;;
47758;SDS011;33520;55.122;35.582;2022-09-27T11:15:00;2.03;;;0.88;;
47758;SDS011;33520;55.122;35.582;2022-09-27T11:17:32;1.50;;;0.80;;
47758;SDS011;33520;55.122;35.582;2022-09-27T11:25:33;2.63;;;1.00;;
47758;SDS011;33520;55.122;35.582;2022-09-27T11:31:06;1.92;;;0.90;;
47758;SDS011;33520;55.122;35.582;2022-09-27T11:39:05;5.78;;;0.63;;
47758;SDS011;33520;55.122;35.582;2022-09-27T11:41:46;1.90;;;1.20;;
47758;SDS011;33520;55.122;35.582;2022-09-27T11:47:12;1.70;;;1.00;;
47758;SDS011;33520;55.122;35.582;2022-09-27T11:52:55;4.82;;;1.08;;
47758;SDS011;33520;55.122;35.582;2022-09-27T12:09:41;1.85;;;1.30;;
47758;SDS011;33520;55.122;35.582;2022-09-27T12:12:18;2.67;;;1.48;;
47758;SDS011;33520;55.122;35.582;2022-09-27T12:14:55;1.73;;;1.30;;
47758;SDS011;33520;55.122;35.582;2022-09-27T12:17:26;1.48;;;0.95;;
47758;SDS011;33520;55.122;35.582;2022-09-27T12:19:57;2.03;;;1.27;;
47758;SDS011;33520;55.122;35.582;2022-09-27T12:23:14;1.30;;;1.10;;
47758;SDS011;33520;55.122;35.582;2022-09-27T12:31:19;3.72;;;1.20;;
47758;SDS011;33520;55.122;35.582;2022-09-27T12:39:11;1.63;;;1.15;;
47758;SDS011;33520;55.122;35.582;2022-09-27T12:41:45;2.65;;;1.30;;
47758;SDS011;33520;55.122;35.582;2022-09-27T12:44:35;3.63;;;1.48;;
47758;SDS011;33520;55.122;35.582;2022-09-27T12:50:36;3.05;;;1.40;;
47758;SDS011;33520;55.122;35.582;2022-09-27T12:56:13;3.60;;;1.80;;
47758;SDS011;33520;55.122;35.582;2022-09-27T13:07:22;6.35;;;2.28;;
47758;SDS011;33520;55.122;35.582;2022-09-27T13:12:37;10.43;;;3.85;;
47758;SDS011;33520;55.122;35.582;2022-09-27T13:15:11;8.27;;;3.70;;
47758;SDS011;33520;55.122;35.582;2022-09-27T13:25:55;3.65;;;1.65;;
47758;SDS011;33520;55.122;35.582;2022-09-27T13:32:25;5.82;;;2.70;;
47758;SDS011;33520;55.122;35.582;2022-09-27T13:40:10;4.85;;;1.60;;
47758;SDS011;33520;55.122;35.582;2022-09-27T13:45:50;2.42;;;1.75;;
47758;SDS011;33520;55.122;35.582;2022-09-27T13:48:31;3.00;;;1.90;;
47758;SDS011;33520;55.122;35.582;2022-09-27T13:51:16;2.20;;;1.50;;
47758;SDS011;33520;55.122;35.582;2022-09-27T13:53:59;2.25;;;1.50;;
47758;SDS011;33520;55.122;35.582;2022-09-27T13:59:20;4.20;;;1.48;;
47758;SDS011;33520;55.122;35.582;2022-09-27T14:02:12;10.18;;;3.20;;
47758;SDS011;33520;55.122;35.582;2022-09-27T14:04:46;6.50;;;2.10;;
47758;SDS011;33520;55.122;35.582;2022-09-27T14:07:16;5.38;;;1.70;;
47758;SDS011;33520;55.122;35.582;2022-09-27T14:09:45;3.33;;;1.65;;
47758;SDS011;33520;55.122;35.582;2022-09-27T14:12:36;6.95;;;2.63;;
47758;SDS011;33520;55.122;35.582;2022-09-27T14:15:06;11.10;;;3.97;;
47758;SDS011;33520;55.122;35.582;2022-09-27T14:17:34;14.65;;;3.63;;
47758;SDS011;33520;55.122;35.582;2022-09-27T14:20:00;8.38;;;3.03;;
47758;SDS011;33520;55.122;35.582;2022-09-27T14:22:28;2.95;;;2.03;;
47758;SDS011;33520;55.122;35.582;2022-09-27T14:25:12;5.32;;;2.08;;
47758;SDS011;33520;55.122;35.582;2022-09-27T14:27:43;3.42;;;1.70;;
47758;SDS011;33520;55.122;35.582;2022-09-27T14:30:28;2.55;;;1.60;;
47758;SDS011;33520;55.122;35.582;2022-09-27T14:33:29;3.97;;;1.55;;
47758;SDS011;33520;55.122;35.582;2022-09-27T14:36:01;3.70;;;1.70;;
47758;SDS011;33520;55.122;35.582;2022-09-27T14:38:48;2.80;;;1.30;;
47758;SDS011;33520;55.122;35.582;2022-09-27T14:41:23;3.50;;;1.48;;
47758;SDS011;33520;55.122;35.582;2022-09-27T14:43:50;3.80;;;1.52;;
47758;SDS011;33520;55.122;35.582;2022-09-27T14:46:23;2.28;;;1.33;;
47758;SDS011;33520;55.122;35.582;2022-09-27T14:48:55;3.25;;;1.65;;
47758;SDS011;33520;55.122;35.582;2022-09-27T14:51:29;6.35;;;1.65;;
47758;SDS011;33520;55.122;35.582;2022-09-27T14:53:57;3.33;;;1.75;;
47758;SDS011;33520;55.122;35.582;2022-09-27T14:56:29;2.28;;;1.45;;
47758;SDS011;33520;55.122;35.582;2022-09-27T14:59:02;6.00;;;1.80;;
47758;SDS011;33520;55.122;35.582;2022-09-27T15:01:31;4.13;;;2.38;;
47758;SDS011;33520;55.122;35.582;2022-09-27T15:04:02;3.05;;;1.63;;
47758;SDS011;33520;55.122;35.582;2022-09-27T15:06:30;3.28;;;1.90;;
47758;SDS011;33520;55.122;35.582;2022-09-27T15:08:57;4.45;;;1.98;;
47758;SDS011;33520;55.122;35.582;2022-09-27T15:11:24;4.22;;;2.17;;
47758;SDS011;33520;55.122;35.582;2022-09-27T15:13:52;3.78;;;1.90;;
47758;SDS011;33520;55.122;35.582;2022-09-27T15:16:20;4.30;;;1.98;;
47758;SDS011;33520;55.122;35.582;2022-09-27T15:18:48;4.07;;;2.08;;
47758;SDS011;33520;55.122;35.582;2022-09-27T15:21:27;3.20;;;1.90;;
47758;SDS011;33520;55.122;35.582;2022-09-27T15:24:02;3.65;;;2.00;;
47758;SDS011;33520;55.122;35.582;2022-09-27T15:29:22;3.60;;;2.15;;
47758;SDS011;33520;55.122;35.582;2022-09-27T15:31:59;2.75;;;1.90;;
47758;SDS011;33520;55.122;35.582;2022-09-27T15:34:28;3.50;;;2.50;;
47758;SDS011;33520;55.122;35.582;2022-09-27T15:36:57;4.00;;;2.25;;
47758;SDS011;33520;55.122;35.582;2022-09-27T15:39:31;6.07;;;2.58;;
47758;SDS011;33520;55.122;35.582;2022-09-27T15:55:16;4.60;;;2.63;;
47758;SDS011;33520;55.122;35.582;2022-09-27T15:57:44;3.72;;;2.10;;
47758;SDS011;33520;55.122;35.582;2022-09-27T16:00:16;4.65;;;2.33;;
47758;SDS011;33520;55.122;35.582;2022-09-27T16:02:43;4.65;;;2.25;;
47758;SDS011;33520;55.122;35.582;2022-09-27T16:05:10;5.03;;;2.33;;
47758;SDS011;33520;55.122;35.582;2022-09-27T16:07:37;4.90;;;2.42;;
47758;SDS011;33520;55.122;35.582;2022-09-27T16:10:13;5.55;;;2.85;;
47758;SDS011;33520;55.122;35.582;2022-09-27T16:12:42;4.90;;;2.80;;
47758;SDS011;33520;55.122;35.582;2022-09-27T16:15:13;4.50;;;2.90;;
47758;SDS011;33520;55.122;35.582;2022-09-27T16:17:40;5.78;;;3.55;;
47758;SDS011;33520;55.122;35.582;2022-09-27T16:20:14;4.75;;;2.80;;
47758;SDS011;33520;55.122;35.582;2022-09-27T16:22:44;3.45;;;2.00;;
47758;SDS011;33520;55.122;35.582;2022-09-27T16:27:36;4.00;;;2.30;;
47758;SDS011;33520;55.122;35.582;2022-09-27T16:30:03;3.53;;;2.25;;
47758;SDS011;33520;55.122;35.582;2022-09-27T16:32:30;5.78;;;2.60;;
47758;SDS011;33520;55.122;35.582;2022-09-27T16:34:56;4.97;;;2.13;;
47758;SDS011;33520;55.122;35.582;2022-09-27T16:37:23;3.08;;;1.80;;
47758;SDS011;33520;55.122;35.582;2022-09-27T16:39:49;4.70;;;1.85;;
47758;SDS011;33520;55.122;35.582;2022-09-27T16:42:15;5.25;;;1.88;;
47758;SDS011;33520;55.122;35.582;2022-09-27T16:44:41;3.92;;;2.20;;
47758;SDS011;33520;55.122;35.582;2022-09-27T16:47:08;4.53;;;1.98;;
47758;SDS011;33520;55.122;35.582;2022-09-27T16:52:19;3.97;;;2.20;;
47758;SDS011;33520;55.122;35.582;2022-09-27T16:54:45;3.15;;;2.10;;
47758;SDS011;33520;55.122;35.582;2022-09-27T16:59:38;5.10;;;2.30;;
47758;SDS011;33520;55.122;35.582;2022-09-27T17:02:04;4.65;;;2.65;;
47758;SDS011;33520;55.122;35.582;2022-09-27T17:04:31;6.97;;;3.10;;
47758;SDS011;33520;55.122;35.582;2022-09-27T17:06:57;5.35;;;2.90;;
47758;SDS011;33520;55.122;35.582;2022-09-27T17:09:24;6.45;;;3.22;;
47758;SDS011;33520;55.122;35.582;2022-09-27T17:14:16;4.50;;;2.58;;
47758;SDS011;33520;55.122;35.582;2022-09-27T17:16:44;5.93;;;3.08;;
47758;SDS011;33520;55.122;35.582;2022-09-27T17:19:11;4.35;;;2.63;;
47758;SDS011;33520;55.122;35.582;2022-09-27T17:21:39;8.02;;;3.03;;
47758;SDS011;33520;55.122;35.582;2022-09-27T17:24:05;6.68;;;2.55;;
47758;SDS011;33520;55.122;35.582;2022-09-27T17:26:32;5.03;;;2.92;;
47758;SDS011;33520;55.122;35.582;2022-09-27T17:28:59;4.03;;;2.88;;
47758;SDS011;33520;55.122;35.582;2022-09-27T17:31:27;8.05;;;2.88;;
47758;SDS011;33520;55.122;35.582;2022-09-27T17:33:56;3.53;;;2.47;;
47758;SDS011;33520;55.122;35.582;2022-09-27T17:36:25;3.90;;;2.55;;
47758;SDS011;33520;55.122;35.582;2022-09-27T17:38:54;4.35;;;2.50;;
47758;SDS011;33520;55.122;35.582;2022-09-27T17:41:22;4.97;;;2.45;;
47758;SDS011;33520;55.122;35.582;2022-09-27T17:43:59;5.10;;;2.55;;
47758;SDS011;33520;55.122;35.582;2022-09-27T17:46:31;5.47;;;2.70;;
47758;SDS011;33520;55.122;35.582;2022-09-27T17:49:01;3.85;;;2.15;;
47758;SDS011;33520;55.122;35.582;2022-09-27T17:52:04;4.20;;;2.75;;
47758;SDS011;33520;55.122;35.582;2022-09-27T17:54:32;6.13;;;2.63;;
47758;SDS011;33520;55.122;35.582;2022-09-27T17:56:59;4.78;;;2.88;;
47758;SDS011;33520;55.122;35.582;2022-09-27T17:59:26;4.55;;;2.95;;
47758;SDS011;33520;55.122;35.582;2022-09-27T18:04:19;6.03;;;2.95;;
47758;SDS011;33520;55.122;35.582;2022-09-27T18:06:45;4.85;;;2.78;;
47758;SDS011;33520;55.122;35.582;2022-09-27T18:11:39;5.72;;;3.08;;
47758;SDS011;33520;55.122;35.582;2022-09-27T18:14:06;4.20;;;2.65;;
47758;SDS011;33520;55.122;35.582;2022-09-27T18:16:36;7.07;;;2.88;;
47758;SDS011;33520;55.122;35.582;2022-09-27T18:19:05;5.15;;;3.00;;
47758;SDS011;33520;55.122;35.582;2022-09-27T18:21:32;8.05;;;3.58;;
47758;SDS011;33520;55.122;35.582;2022-09-27T18:23:59;6.35;;;3.42;;
47758;SDS011;33520;55.122;35.582;2022-09-27T18:26:29;5.30;;;3.75;;
47758;SDS011;33520;55.122;35.582;2022-09-27T18:29:01;7.80;;;4.63;;
47758;SDS011;33520;55.122;35.582;2022-09-27T18:31:29;6.25;;;3.50;;
47758;SDS011;33520;55.122;35.582;2022-09-27T18:36:23;4.78;;;2.85;;
47758;SDS011;33520;55.122;35.582;2022-09-27T18:38:51;5.72;;;3.17;;
47758;SDS011;33520;55.122;35.582;2022-09-27T18:41:20;6.90;;;3.33;;
47758;SDS011;33520;55.122;35.582;2022-09-27T18:43:50;5.22;;;3.70;;
47758;SDS011;33520;55.122;35.582;2022-09-27T18:46:21;5.10;;;2.80;;
47758;SDS011;33520;55.122;35.582;2022-09-27T18:48:49;7.22;;;3.10;;
47758;SDS011;33520;55.122;35.582;2022-09-27T18:53:46;6.65;;;3.30;;
47758;SDS011;33520;55.122;35.582;2022-09-27T18:56:14;5.60;;;2.63;;
47758;SDS011;33520;55.122;35.582;2022-09-27T18:58:42;6.18;;;3.08;;
47758;SDS011;33520;55.122;35.582;2022-09-27T19:01:10;4.78;;;3.25;;